Terminal Aerodrome Forecast
Issued by NWS

Home | Current Version | Previous Version | Text Only | Print | Product List | Glossary Off
Versions: 1 2 3 4 5 6 7 8 9 10 11 12 13 14 15 16 17

000
FTUS43 KMPX 121140
TAFRNH
TAF
KRNH 121140Z 1212/1312 30008KT P6SM FEW250
     FM121400 30007KT P6SM BKN080
     FM122000 22006KT P6SM BKN050
     FM122300 16006KT P6SM OVC028
     FM130500 14004KT P6SM OVC045
     FM131100 VRB03KT 3SM -SN BR OVC015=

USA.gov is the U.S. government's official web portal to all federal, state and local government web resources and services.